Time;durP1;ratioP1;P1;durP2;ratioP2;P2;SDS_P1;SDS_P2;PMS_P1;PMS_P2;Temp;Humidity;BMP_temperature;BMP_pressure;BME280_temperature;BME280_humidity;BME280_pressure;Samples;Min_cycle;Max_cycle;Signal;HPM_P1;HPM_P2
2023/02/17 00:01:18;;;;;;;;;;;29.40;99.50;;;;;;5023831;28;19913;-65
2023/02/17 00:03:48;;;;;;;;;;;29.40;98.90;;;;;;5021772;28;20502;-65
2023/02/17 00:06:16;;;;;;;;;;;29.50;99.40;;;;;;5025524;28;20341;-62
2023/02/17 00:08:42;;;;;;;;;;;29.60;98.90;;;;;;5023797;28;20135;-65
2023/02/17 00:11:09;;;;;;;;;;;29.80;98.40;;;;;;5020463;28;19913;-61
2023/02/17 00:13:35;;;;;;;;;;;30.00;98.50;;;;;;5022397;28;19913;-60
2023/02/17 00:16:08;;;;;;;;;;;30.00;98.50;;;;;;5023414;28;19936;-62
2023/02/17 00:18:34;;;;;;;;;;;30.20;98.80;;;;;;5022137;28;19916;-61
2023/02/17 00:21:10;;;;;;;;;;;30.40;98.40;;;;;;5020902;28;19913;-66
2023/02/17 00:23:36;;;;;;;;;;;30.50;97.20;;;;;;5019750;28;20068;-61
2023/02/17 00:26:06;;;;;;;;;;;30.80;96.70;;;;;;5017834;28;20063;-64
2023/02/17 00:28:33;;;;;;;;;;;31.00;97.40;;;;;;5024535;28;20288;-63
2023/02/17 00:31:04;;;;;;;;;;;31.20;96.60;;;;;;5013579;28;20360;-61
2023/02/17 00:33:30;;;;;;;;;;;31.50;96.50;;;;;;4326258;28;9999908;-61
2023/02/17 00:35:57;;;;;;;;;;;31.60;95.00;;;;;;5013890;28;19913;-60
2023/02/17 00:38:23;;;;;;;;;;;31.60;94.80;;;;;;5024554;28;19917;-61
2023/02/17 00:40:49;;;;;;;;;;;31.60;95.60;;;;;;5024549;28;20346;-61
2023/02/17 00:43:16;;;;;;;;;;;31.60;95.50;;;;;;5024719;28;19924;-61
2023/02/17 00:45:42;;;;;;;;;;;31.80;95.30;;;;;;5022397;28;19999;-63
2023/02/17 00:48:09;;;;;;;;;;;31.90;93.70;;;;;;5018360;28;20748;-66
2023/02/17 00:50:36;;;;;;;;;;;32.20;94.10;;;;;;5026330;28;19913;-62
2023/02/17 00:53:02;;;;;;;;;;;32.40;92.80;;;;;;5021213;28;19947;-66
2023/02/17 00:55:28;;;;;;;;;;;32.30;93.10;;;;;;5019926;28;20411;-61
2023/02/17 00:57:55;;;;;;;;;;;32.10;92.70;;;;;;5022673;28;19921;-62
2023/02/17 01:00:21;;;;;;;;;;;32.00;92.10;;;;;;5020041;28;20309;-62
2023/02/17 01:02:47;;;;;;;;;;;32.20;92.60;;;;;;5019864;28;20222;-62
2023/02/17 01:05:14;;;;;;;;;;;32.60;92.20;;;;;;5022280;28;19919;-62
2023/02/17 01:07:40;;;;;;;;;;;33.00;92.00;;;;;;5023993;28;20059;-61
2023/02/17 01:10:07;;;;;;;;;;;33.20;91.30;;;;;;5021417;28;20434;-62
2023/02/17 01:12:34;;;;;;;;;;;33.40;91.40;;;;;;5021419;28;19921;-66
2023/02/17 01:15:00;;;;;;;;;;;33.80;91.20;;;;;;5020375;28;20661;-61
2023/02/17 01:17:27;;;;;;;;;;;34.20;90.30;;;;;;5024401;28;19918;-64
2023/02/17 01:19:53;;;;;;;;;;;34.60;86.50;;;;;;5014999;28;20112;-65
2023/02/17 01:22:19;;;;;;;;;;;34.80;87.00;;;;;;5016017;28;19918;-65
2023/02/17 01:24:46;;;;;;;;;;;34.70;87.00;;;;;;5021525;28;20291;-66
2023/02/17 01:27:12;;;;;;;;;;;34.70;88.90;;;;;;5014281;28;20059;-67
2023/02/17 01:29:38;;;;;;;;;;;34.70;88.40;;;;;;5023842;28;20256;-67
2023/02/17 01:32:05;;;;;;;;;;;34.90;88.70;;;;;;5013969;28;19924;-67
2023/02/17 01:34:31;;;;;;;;;;;35.00;87.60;;;;;;5020156;28;20311;-66
2023/02/17 01:36:57;;;;;;;;;;;35.20;88.90;;;;;;5020212;28;19918;-67
2023/02/17 01:39:24;;;;;;;;;;;35.20;86.50;;;;;;5022734;28;20502;-67
2023/02/17 01:41:50;;;;;;;;;;;35.40;86.70;;;;;;5018112;28;19917;-67
2023/02/17 01:44:18;;;;;;;;;;;35.60;83.70;;;;;;5016928;28;19917;-67
2023/02/17 01:46:46;;;;;;;;;;;35.60;84.30;;;;;;5023270;28;20342;-67
2023/02/17 01:49:22;;;;;;;;;;;35.90;84.70;;;;;;5020307;28;19922;-68
2023/02/17 01:51:54;;;;;;;;;;;35.90;84.40;;;;;;5017449;28;19932;-68
2023/02/17 01:54:29;;;;;;;;;;;36.20;82.80;;;;;;5012686;28;19920;-64
2023/02/17 01:56:56;;;;;;;;;;;36.30;82.00;;;;;;5017307;28;19987;-64
2023/02/17 01:59:23;;;;;;;;;;;36.40;82.60;;;;;;5017349;28;19932;-64
2023/02/17 02:01:52;;;;;;;;;;;36.50;82.90;;;;;;5018766;28;20378;-68
2023/02/17 02:04:20;;;;;;;;;;;36.60;83.00;;;;;;5015597;28;19917;-64
2023/02/17 02:06:46;;;;;;;;;;;36.70;81.60;;;;;;5021865;28;19917;-64
2023/02/17 02:09:18;;;;;;;;;;;36.70;81.20;;;;;;5012117;28;19924;-69
2023/02/17 02:11:47;;;;;;;;;;;36.60;82.00;;;;;;5018470;28;20276;-64
2023/02/17 02:14:13;;;;;;;;;;;36.70;80.80;;;;;;5018195;28;20024;-68
2023/02/17 02:16:45;;;;;;;;;;;37.00;79.70;;;;;;5023279;28;20394;-68
2023/02/17 02:19:25;;;;;;;;;;;36.90;79.30;;;;;;5018169;28;19944;-67
2023/02/17 02:22:30;;;;;;;;;;;36.90;80.20;;;;;;5016791;28;19920;-68
2023/02/17 02:25:14;;;;;;;;;;;36.90;79.10;;;;;;4997066;28;19914;-66
2023/02/17 02:28:16;;;;;;;;;;;36.90;78.60;;;;;;5003134;28;19922;-63
2023/02/17 02:31:00;;;;;;;;;;;37.10;80.20;;;;;;4921918;29;19926;-69
2023/02/17 02:33:30;;;;;;;;;;;37.30;81.20;;;;;;4923283;29;20041;-67
2023/02/17 02:35:56;;;;;;;;;;;37.60;79.50;;;;;;4923744;29;19918;-63
2023/02/17 02:38:28;;;;;;;;;;;37.60;77.20;;;;;;4924723;29;19923;-66
2023/02/17 02:40:58;;;;;;;;;;;37.20;79.20;;;;;;4924340;29;19919;-64
2023/02/17 02:43:24;;;;;;;;;;;37.40;78.40;;;;;;4923922;29;20310;-64
2023/02/17 02:45:51;;;;;;;;;;;37.50;81.30;;;;;;4922439;29;20443;-67
2023/02/17 02:48:17;;;;;;;;;;;37.70;79.70;;;;;;4924950;29;19921;-66
2023/02/17 02:50:52;;;;;;;;;;;38.10;79.80;;;;;;4924239;29;19922;-68
2023/02/17 02:53:31;;;;;;;;;;;38.50;78.30;;;;;;4924239;29;20416;-68
2023/02/17 02:56:05;;;;;;;;;;;38.60;75.70;;;;;;4944673;28;20522;-64
2023/02/17 02:58:40;;;;;;;;;;;38.70;77.50;;;;;;4960300;28;19928;-63
2023/02/17 03:01:12;;;;;;;;;;;38.20;76.90;;;;;;4962738;28;19921;-67
2023/02/17 03:03:42;;;;;;;;;;;38.40;76.40;;;;;;4967340;28;20432;-63
2023/02/17 03:06:14;;;;;;;;;;;38.50;75.30;;;;;;5016513;28;20290;-67
2023/02/17 03:08:52;;;;;;;;;;;38.70;75.30;;;;;;5021755;28;20376;-65
2023/02/17 03:11:31;;;;;;;;;;;39.00;75.80;;;;;;5021513;28;20095;-66
2023/02/17 03:14:16;;;;;;;;;;;39.10;77.60;;;;;;5016795;28;19924;-63
2023/02/17 03:16:43;;;;;;;;;;;39.10;76.40;;;;;;5018756;28;20271;-64
2023/02/17 03:19:10;;;;;;;;;;;38.80;74.70;;;;;;5016412;28;19913;-64
2023/02/17 03:21:42;;;;;;;;;;;39.10;74.90;;;;;;5019122;28;19998;-68
2023/02/17 03:24:09;;;;;;;;;;;39.30;74.00;;;;;;5019786;28;20087;-69
2023/02/17 03:26:35;;;;;;;;;;;39.30;72.60;;;;;;5016738;28;19914;-65
2023/02/17 03:29:01;;;;;;;;;;;39.40;74.40;;;;;;5021559;28;20470;-68
2023/02/17 03:31:28;;;;;;;;;;;39.60;74.50;;;;;;5016187;28;19914;-67
2023/02/17 03:33:54;;;;;;;;;;;39.60;73.20;;;;;;5016088;28;20406;-70
2023/02/17 03:36:20;;;;;;;;;;;39.70;72.30;;;;;;5020794;28;19913;-64
2023/02/17 03:38:47;;;;;;;;;;;39.70;72.60;;;;;;5018707;28;19917;-67
2023/02/17 03:41:13;;;;;;;;;;;40.00;73.40;;;;;;5016344;28;20028;-69
2023/02/17 03:43:40;;;;;;;;;;;39.80;74.60;;;;;;5020382;28;19909;-71
2023/02/17 03:46:09;;;;;;;;;;;39.70;76.20;;;;;;5018467;28;19913;-71
2023/02/17 03:48:36;;;;;;;;;;;39.50;76.20;;;;;;5016337;28;19920;-70
2023/02/17 03:51:10;;;;;;;;;;;38.80;77.10;;;;;;5021485;28;19921;-69
2023/02/17 03:53:36;;;;;;;;;;;38.60;76.30;;;;;;5016531;28;19917;-67
2023/02/17 03:56:02;;;;;;;;;;;38.10;77.30;;;;;;5017437;28;20343;-68
2023/02/17 03:58:29;;;;;;;;;;;38.00;78.50;;;;;;5018747;28;20376;-69
2023/02/17 04:00:55;;;;;;;;;;;38.30;78.00;;;;;;5015964;28;19976;-64
2023/02/17 04:03:21;;;;;;;;;;;38.10;77.20;;;;;;5018996;28;19917;-67
2023/02/17 04:05:48;;;;;;;;;;;37.60;79.70;;;;;;5020597;28;19964;-67
2023/02/17 04:08:14;;;;;;;;;;;37.60;79.90;;;;;;5013115;28;19917;-67
2023/02/17 04:10:41;;;;;;;;;;;37.10;79.70;;;;;;5020168;28;19924;-65
2023/02/17 04:13:07;;;;;;;;;;;36.60;80.40;;;;;;5020916;28;19923;-67
2023/02/17 04:15:33;;;;;;;;;;;36.30;81.30;;;;;;5022229;28;19913;-67
2023/02/17 04:18:00;;;;;;;;;;;36.90;82.30;;;;;;5020655;28;19917;-67
2023/02/17 04:20:27;;;;;;;;;;;37.30;80.90;;;;;;5017852;28;20058;-71
2023/02/17 04:22:53;;;;;;;;;;;37.50;80.60;;;;;;5022868;28;19920;-66
2023/02/17 04:25:19;;;;;;;;;;;37.30;80.40;;;;;;5018179;28;19940;-67
2023/02/17 04:27:46;;;;;;;;;;;37.00;80.60;;;;;;5019261;28;19948;-68
2023/02/17 04:30:12;;;;;;;;;;;36.80;80.90;;;;;;5016555;28;19931;-65
2023/02/17 04:32:39;;;;;;;;;;;36.90;80.60;;;;;;5018801;28;19921;-69
2023/02/17 04:35:05;;;;;;;;;;;36.80;81.20;;;;;;5018755;28;19917;-67
2023/02/17 04:37:32;;;;;;;;;;;37.20;81.30;;;;;;5019589;28;20272;-67
2023/02/17 04:39:58;;;;;;;;;;;37.40;81.50;;;;;;5017349;28;19976;-66
2023/02/17 04:42:24;;;;;;;;;;;37.50;78.80;;;;;;5015287;28;19975;-69
2023/02/17 04:44:51;;;;;;;;;;;37.30;79.90;;;;;;5019703;28;20423;-65
2023/02/17 04:47:17;;;;;;;;;;;37.40;79.20;;;;;;5017219;28;19917;-66
2023/02/17 04:49:44;;;;;;;;;;;37.60;78.50;;;;;;5016847;28;19925;-63
2023/02/17 04:52:10;;;;;;;;;;;37.70;79.00;;;;;;5021116;28;19917;-65
2023/02/17 04:54:36;;;;;;;;;;;37.30;78.70;;;;;;5016554;28;19917;-63
2023/02/17 04:57:03;;;;;;;;;;;37.40;79.40;;;;;;5011820;28;20173;-65
2023/02/17 04:59:29;;;;;;;;;;;37.70;79.10;;;;;;5016302;28;20590;-64
2023/02/17 05:01:56;;;;;;;;;;;38.00;78.00;;;;;;5015006;28;19913;-64
2023/02/17 05:04:22;;;;;;;;;;;38.10;76.60;;;;;;5014913;28;19921;-64
2023/02/17 05:06:50;;;;;;;;;;;37.70;76.90;;;;;;5015306;28;19913;-65
2023/02/17 05:09:16;;;;;;;;;;;37.40;77.10;;;;;;5014300;28;19917;-63
2023/02/17 05:11:42;;;;;;;;;;;36.90;76.90;;;;;;5013478;28;19964;-62
2023/02/17 05:14:09;;;;;;;;;;;36.80;77.40;;;;;;5017527;28;20639;-64
2023/02/17 05:16:35;;;;;;;;;;;36.90;76.60;;;;;;5020558;28;19927;-63
2023/02/17 05:19:01;;;;;;;;;;;36.50;76.70;;;;;;5023933;28;20444;-62
2023/02/17 05:21:28;;;;;;;;;;;36.30;77.80;;;;;;5016716;28;19956;-63
2023/02/17 05:23:54;;;;;;;;;;;36.60;76.50;;;;;;5014001;28;19914;-66
2023/02/17 05:26:21;;;;;;;;;;;36.70;76.30;;;;;;5015818;28;19962;-62
2023/02/17 05:28:47;;;;;;;;;;;36.90;76.40;;;;;;5013513;28;20299;-63
2023/02/17 05:31:13;;;;;;;;;;;37.00;76.00;;;;;;5011804;28;20724;-63
2023/02/17 05:33:40;;;;;;;;;;;37.00;75.00;;;;;;5011816;28;20010;-64
2023/02/17 05:36:07;;;;;;;;;;;37.00;75.80;;;;;;5017126;28;20256;-66
2023/02/17 05:38:34;;;;;;;;;;;37.20;75.90;;;;;;5014659;28;19913;-66
2023/02/17 05:41:00;;;;;;;;;;;37.30;74.60;;;;;;5017652;28;20049;-65
2023/02/17 05:43:27;;;;;;;;;;;37.40;74.90;;;;;;5011604;28;19909;-67
2023/02/17 05:45:54;;;;;;;;;;;37.00;74.50;;;;;;5017448;28;19913;-67
2023/02/17 05:48:20;;;;;;;;;;;36.90;75.20;;;;;;5018901;28;19917;-66
2023/02/17 05:50:46;;;;;;;;;;;36.70;75.20;;;;;;5016955;28;19913;-66
2023/02/17 05:53:13;;;;;;;;;;;36.90;75.80;;;;;;5017313;28;19921;-64
2023/02/17 05:55:39;;;;;;;;;;;37.20;76.20;;;;;;5014233;28;19917;-63
2023/02/17 05:58:05;;;;;;;;;;;37.00;75.40;;;;;;5009890;28;20064;-66
2023/02/17 06:00:32;;;;;;;;;;;37.20;74.90;;;;;;5009380;28;19975;-66
2023/02/17 06:02:58;;;;;;;;;;;37.00;74.90;;;;;;5011918;28;19913;-63
2023/02/17 06:05:25;;;;;;;;;;;37.00;74.90;;;;;;5017662;28;19920;-63
2023/02/17 06:07:51;;;;;;;;;;;36.50;76.70;;;;;;5014999;28;19983;-66
2023/02/17 06:10:17;;;;;;;;;;;36.50;76.30;;;;;;5015702;28;20075;-63
2023/02/17 06:12:44;;;;;;;;;;;36.50;76.90;;;;;;5016166;28;19967;-63
2023/02/17 06:15:10;;;;;;;;;;;36.60;76.90;;;;;;5017889;28;20406;-66
2023/02/17 06:17:37;;;;;;;;;;;35.90;77.40;;;;;;5019252;28;19971;-63
2023/02/17 06:20:04;;;;;;;;;;;35.80;78.30;;;;;;5014001;28;20011;-66
2023/02/17 06:22:30;;;;;;;;;;;36.10;78.00;;;;;;5016005;28;19940;-66
2023/02/17 06:24:56;;;;;;;;;;;36.20;76.70;;;;;;5015918;28;20000;-65
2023/02/17 06:27:23;;;;;;;;;;;36.00;77.90;;;;;;5010126;28;20425;-64
2023/02/17 06:29:49;;;;;;;;;;;35.70;77.70;;;;;;5011085;28;20407;-66
2023/02/17 06:32:16;;;;;;;;;;;35.40;78.80;;;;;;5009122;28;20027;-63
2023/02/17 06:34:42;;;;;;;;;;;35.30;78.30;;;;;;5009849;28;19940;-70
2023/02/17 06:37:09;;;;;;;;;;;35.00;78.30;;;;;;5016336;28;19971;-67
2023/02/17 06:39:35;;;;;;;;;;;34.70;78.80;;;;;;5017251;28;19917;-66
2023/02/17 06:42:01;;;;;;;;;;;35.10;78.70;;;;;;5014260;28;20070;-65
2023/02/17 06:44:28;;;;;;;;;;;35.40;77.90;;;;;;5015766;28;20353;-64
2023/02/17 06:46:54;;;;;;;;;;;34.90;77.70;;;;;;5012552;28;20661;-68
2023/02/17 06:49:21;;;;;;;;;;;34.90;78.40;;;;;;5019397;28;20226;-63
2023/02/17 06:51:47;;;;;;;;;;;35.20;78.00;;;;;;5020464;28;19913;-66
2023/02/17 06:54:13;;;;;;;;;;;35.40;77.20;;;;;;5019296;28;19914;-64
2023/02/17 06:56:40;;;;;;;;;;;35.80;76.80;;;;;;5009672;28;19941;-64
2023/02/17 06:59:06;;;;;;;;;;;36.00;76.10;;;;;;5009991;28;19925;-68
2023/02/17 07:01:32;;;;;;;;;;;35.70;75.60;;;;;;5015430;28;19921;-65
2023/02/17 07:03:59;;;;;;;;;;;35.70;76.10;;;;;;5010540;28;20012;-65
2023/02/17 07:06:26;;;;;;;;;;;35.40;76.70;;;;;;5015780;28;19922;-65
2023/02/17 07:08:52;;;;;;;;;;;35.50;77.10;;;;;;5017935;28;19944;-68
2023/02/17 07:11:19;;;;;;;;;;;35.90;76.70;;;;;;5017814;28;20304;-64
2023/02/17 07:13:45;;;;;;;;;;;36.00;77.70;;;;;;5016536;28;19927;-63
2023/02/17 07:16:12;;;;;;;;;;;36.40;77.50;;;;;;5015052;28;20441;-64
2023/02/17 07:18:39;;;;;;;;;;;36.50;77.90;;;;;;5013496;28;19976;-64
2023/02/17 07:21:06;;;;;;;;;;;36.60;78.70;;;;;;5018913;28;19919;-63
2023/02/17 07:23:33;;;;;;;;;;;36.70;78.70;;;;;;5016019;28;19924;-64
2023/02/17 07:26:03;;;;;;;;;;;36.50;78.60;;;;;;5018555;28;20012;-70
2023/02/17 07:28:30;;;;;;;;;;;36.40;78.80;;;;;;5012177;28;19917;-65
2023/02/17 07:30:56;;;;;;;;;;;36.60;78.30;;;;;;5014804;28;19924;-63
2023/02/17 07:33:23;;;;;;;;;;;37.00;76.50;;;;;;5015597;28;19932;-66
2023/02/17 07:35:49;;;;;;;;;;;37.20;76.00;;;;;;5012800;28;20069;-69
2023/02/17 07:38:15;;;;;;;;;;;37.10;76.10;;;;;;5010596;28;20407;-64
2023/02/17 07:40:42;;;;;;;;;;;36.80;75.90;;;;;;5019218;28;20548;-66
2023/02/17 07:43:08;;;;;;;;;;;36.50;76.60;;;;;;5010285;28;19926;-68
2023/02/17 07:45:34;;;;;;;;;;;36.30;76.30;;;;;;5019354;28;19917;-66
2023/02/17 07:48:01;;;;;;;;;;;36.30;76.50;;;;;;5010437;28;19918;-65
2023/02/17 07:50:27;;;;;;;;;;;36.00;77.70;;;;;;5009987;28;19917;-65
2023/02/17 07:52:53;;;;;;;;;;;35.90;78.00;;;;;;5016416;28;19928;-66
2023/02/17 07:55:23;;;;;;;;;;;35.90;78.50;;;;;;5014727;28;20644;-66
2023/02/17 07:57:49;;;;;;;;;;;35.80;78.70;;;;;;5013220;28;19918;-65
2023/02/17 08:00:16;;;;;;;;;;;35.70;77.30;;;;;;5012779;28;19926;-63
2023/02/17 08:02:42;;;;;;;;;;;35.70;74.60;;;;;;5016630;28;20201;-63
2023/02/17 08:05:09;;;;;;;;;;;35.70;73.50;;;;;;5016091;28;20008;-65
2023/02/17 08:07:35;;;;;;;;;;;35.50;74.50;;;;;;5015044;28;20303;-69
2023/02/17 08:15:34;;;;;;;;;;;34.70;74.40;;;;;;5015682;28;20470;-66
2023/02/17 08:18:03;;;;;;;;;;;34.60;73.20;;;;;;5013279;28;20307;-69
2023/02/17 08:20:30;;;;;;;;;;;34.10;73.60;;;;;;5017256;28;19913;-67
2023/02/17 08:22:56;;;;;;;;;;;33.30;74.70;;;;;;5014121;28;19917;-66
2023/02/17 08:25:23;;;;;;;;;;;32.50;76.70;;;;;;5011939;28;19913;-67
2023/02/17 08:27:49;;;;;;;;;;;31.60;78.60;;;;;;5012783;28;19975;-70
2023/02/17 08:30:16;;;;;;;;;;;30.80;80.50;;;;;;5014887;28;20356;-70
2023/02/17 08:32:44;;;;;;;;;;;30.20;82.10;;;;;;5011733;28;19972;-73
2023/02/17 08:35:10;;;;;;;;;;;29.70;83.30;;;;;;5013898;28;19924;-70
2023/02/17 08:37:37;;;;;;;;;;;29.40;84.60;;;;;;5016515;28;19920;-70
2023/02/17 08:40:03;;;;;;;;;;;29.10;85.60;;;;;;5016109;28;20210;-65
2023/02/17 08:42:31;;;;;;;;;;;29.00;86.20;;;;;;5015830;28;20408;-68
2023/02/17 08:44:57;;;;;;;;;;;28.60;87.70;;;;;;5039678;28;20261;-69
2023/02/17 08:47:24;;;;;;;;;;;28.40;89.00;;;;;;5009620;28;19917;-69
2023/02/17 08:49:50;;;;;;;;;;;28.30;89.70;;;;;;5016211;28;19971;-69
2023/02/17 08:52:17;;;;;;;;;;;28.10;90.30;;;;;;5014019;28;19922;-68
2023/02/17 08:54:43;;;;;;;;;;;28.00;90.50;;;;;;5011760;28;19963;-66
2023/02/17 08:57:09;;;;;;;;;;;27.90;91.00;;;;;;5014497;28;20287;-67
2023/02/17 08:59:36;;;;;;;;;;;27.80;91.60;;;;;;5010419;28;19933;-67
2023/02/17 09:02:02;;;;;;;;;;;27.40;91.90;;;;;;5015790;28;19921;-67
2023/02/17 09:04:29;;;;;;;;;;;27.30;92.50;;;;;;5017345;28;19921;-68
2023/02/17 09:06:55;;;;;;;;;;;27.50;92.50;;;;;;5012514;28;20441;-64
2023/02/17 09:09:25;;;;;;;;;;;27.40;92.60;;;;;;5013280;28;19924;-64
2023/02/17 09:11:54;;;;;;;;;;;27.10;93.30;;;;;;5016229;28;19984;-70
2023/02/17 09:14:22;;;;;;;;;;;26.70;93.90;;;;;;5016289;28;19917;-67
2023/02/17 09:16:50;;;;;;;;;;;26.70;94.10;;;;;;5019058;28;19947;-69
2023/02/17 09:19:17;;;;;;;;;;;26.50;94.40;;;;;;5015407;28;19919;-69
2023/02/17 09:21:44;;;;;;;;;;;26.30;94.90;;;;;;5014791;28;19975;-65
2023/02/17 09:24:11;;;;;;;;;;;26.00;95.60;;;;;;5011887;28;20029;-67
2023/02/17 09:26:37;;;;;;;;;;;25.90;95.70;;;;;;5019477;28;20437;-67
2023/02/17 09:29:04;;;;;;;;;;;25.80;96.30;;;;;;5019683;28;20185;-66
2023/02/17 09:31:31;;;;;;;;;;;25.70;96.70;;;;;;5013085;28;19921;-71
2023/02/17 09:33:58;;;;;;;;;;;25.60;97.40;;;;;;5012083;28;19921;-69
2023/02/17 09:36:26;;;;;;;;;;;25.40;97.90;;;;;;5012407;28;19921;-68
2023/02/17 09:38:52;;;;;;;;;;;25.30;97.60;;;;;;5013636;28;19914;-65
2023/02/17 09:41:18;;;;;;;;;;;25.10;98.40;;;;;;5017662;28;19920;-66
2023/02/17 09:43:45;;;;;;;;;;;25.00;98.60;;;;;;5013982;28;20387;-67
2023/02/17 09:46:17;;;;;;;;;;;25.10;98.70;;;;;;5008538;28;20001;-67
2023/02/17 09:48:45;;;;;;;;;;;25.00;99.00;;;;;;5018237;28;19928;-68
2023/02/17 09:51:19;;;;;;;;;;;25.00;99.00;;;;;;5017463;28;20457;-67
2023/02/17 09:53:48;;;;;;;;;;;24.90;98.80;;;;;;5013438;28;20044;-68
2023/02/17 09:56:17;;;;;;;;;;;24.80;99.10;;;;;;5014190;28;20007;-68
2023/02/17 09:58:47;;;;;;;;;;;24.70;99.10;;;;;;5029109;22;19929;-70
2023/02/17 10:01:17;;;;;;;;;;;24.70;98.80;;;;;;5035143;28;19963;-66
2023/02/17 10:03:52;;;;;;;;;;;24.70;98.80;;;;;;5034704;28;19916;-63
2023/02/17 10:06:23;;;;;;;;;;;24.70;98.50;;;;;;5041190;28;20322;-68
2023/02/17 10:09:02;;;;;;;;;;;24.80;98.50;;;;;;5038279;28;19978;-68
2023/02/17 10:11:37;;;;;;;;;;;24.90;98.10;;;;;;5029521;28;19913;-67
2023/02/17 10:14:15;;;;;;;;;;;24.80;98.40;;;;;;5028468;28;19921;-67
2023/02/17 10:16:51;;;;;;;;;;;24.80;97.70;;;;;;5036966;28;19959;-67
2023/02/17 10:19:21;;;;;;;;;;;24.70;97.90;;;;;;5039029;28;19916;-67
2023/02/17 10:21:52;;;;;;;;;;;24.70;98.40;;;;;;5025643;28;19945;-67
2023/02/17 10:24:18;;;;;;;;;;;24.70;98.30;;;;;;5024430;28;20023;-66
2023/02/17 10:27:10;;;;;;;;;;;24.70;98.40;;;;;;5020695;28;19959;-66
2023/02/17 10:29:47;;;;;;;;;;;24.60;98.90;;;;;;4963676;28;20285;-66
2023/02/17 10:32:23;;;;;;;;;;;24.60;99.30;;;;;;4979155;28;20021;-66
2023/02/17 10:35:11;;;;;;;;;;;24.60;99.40;;;;;;4986849;28;20124;-68
2023/02/17 10:37:40;;;;;;;;;;;24.60;99.20;;;;;;4972019;28;19918;-67
2023/02/17 10:40:26;;;;;;;;;;;24.50;99.80;;;;;;4974647;28;20408;-64
2023/02/17 10:42:56;;;;;;;;;;;24.50;99.90;;;;;;4965158;28;19921;-68
2023/02/17 10:45:33;;;;;;;;;;;24.40;99.90;;;;;;4974538;28;19914;-70
2023/02/17 10:48:20;;;;;;;;;;;24.40;99.90;;;;;;4982430;28;19925;-69
2023/02/17 10:50:47;;;;;;;;;;;24.20;99.90;;;;;;4982912;28;19949;-69
2023/02/17 10:53:16;;;;;;;;;;;24.10;99.90;;;;;;4983116;28;19957;-67
2023/02/17 10:55:48;;;;;;;;;;;24.00;99.90;;;;;;4975580;28;20019;-69
2023/02/17 10:58:15;;;;;;;;;;;23.90;99.90;;;;;;4980199;28;19926;-67
2023/02/17 11:00:42;;;;;;;;;;;23.90;99.90;;;;;;4985471;28;19953;-67
2023/02/17 11:03:18;;;;;;;;;;;23.90;99.90;;;;;;4982985;28;19918;-67
2023/02/17 11:05:51;;;;;;;;;;;23.90;99.90;;;;;;4986174;28;20765;-66
2023/02/17 11:08:36;;;;;;;;;;;23.80;99.90;;;;;;5021856;28;19951;-67
2023/02/17 11:11:07;;;;;;;;;;;23.70;99.90;;;;;;5029711;28;20396;-68
2023/02/17 11:13:36;;;;;;;;;;;23.60;99.90;;;;;;5029135;28;19921;-69
2023/02/17 11:16:03;;;;;;;;;;;23.50;99.90;;;;;;5016863;28;20490;-66
2023/02/17 11:18:43;;;;;;;;;;;23.50;99.90;;;;;;5024833;28;19953;-66
2023/02/17 11:21:10;;;;;;;;;;;23.60;99.90;;;;;;5026192;28;19917;-69
2023/02/17 11:23:47;;;;;;;;;;;23.80;99.90;;;;;;5016909;28;19925;-64
2023/02/17 11:26:21;;;;;;;;;;;23.80;99.90;;;;;;5027526;28;19917;-68
2023/02/17 11:28:47;;;;;;;;;;;23.60;99.90;;;;;;5023055;28;20376;-70
2023/02/17 11:31:23;;;;;;;;;;;23.60;99.90;;;;;;5036021;28;19921;-69
2023/02/17 11:33:49;;;;;;;;;;;23.70;99.90;;;;;;5038954;28;19917;-65
2023/02/17 11:36:24;;;;;;;;;;;23.60;99.90;;;;;;5026518;28;19928;-66
2023/02/17 11:38:50;;;;;;;;;;;23.50;99.90;;;;;;5020144;28;19917;-65
2023/02/17 11:41:17;;;;;;;;;;;23.40;99.90;;;;;;5027536;28;20012;-66
2023/02/17 11:43:51;;;;;;;;;;;23.30;99.90;;;;;;5028827;28;20752;-63
2023/02/17 11:46:22;;;;;;;;;;;23.30;99.90;;;;;;5016386;28;19918;-66
2023/02/17 11:49:07;;;;;;;;;;;23.10;99.90;;;;;;5019987;28;19916;-65
2023/02/17 11:51:52;;;;;;;;;;;23.20;99.90;;;;;;5018950;28;20102;-63
2023/02/17 11:54:45;;;;;;;;;;;23.30;99.90;;;;;;5029493;28;19924;-66
2023/02/17 11:57:18;;;;;;;;;;;23.40;99.90;;;;;;5021408;28;19920;-61
2023/02/17 11:59:59;;;;;;;;;;;23.20;99.90;;;;;;5029571;28;19935;-62
2023/02/17 12:02:32;;;;;;;;;;;23.20;99.90;;;;;;5028276;28;19916;-63
2023/02/17 12:05:14;;;;;;;;;;;23.10;99.90;;;;;;5023175;28;19913;-63
2023/02/17 12:07:52;;;;;;;;;;;23.10;99.90;;;;;;5022766;28;19920;-63
2023/02/17 12:10:36;;;;;;;;;;;23.00;99.90;;;;;;5027948;28;19960;-63
2023/02/17 12:13:23;;;;;;;;;;;22.90;99.90;;;;;;5036108;28;19967;-63
2023/02/17 12:15:55;;;;;;;;;;;23.00;99.90;;;;;;5022947;28;19932;-62
2023/02/17 12:18:37;;;;;;;;;;;23.00;99.90;;;;;;5028933;28;19995;-62
2023/02/17 12:21:08;;;;;;;;;;;23.00;99.90;;;;;;5028417;28;20700;-63
2023/02/17 12:24:03;;;;;;;;;;;22.90;99.90;;;;;;5028587;28;20423;-64
2023/02/17 12:26:36;;;;;;;;;;;22.90;99.90;;;;;;4993522;28;20348;-63
2023/02/17 12:29:20;;;;;;;;;;;22.90;99.90;;;;;;4986702;28;19968;-61
2023/02/17 12:31:56;;;;;;;;;;;22.90;99.90;;;;;;4985376;28;20530;-62
2023/02/17 12:34:40;;;;;;;;;;;22.80;99.90;;;;;;4989579;28;19988;-66
2023/02/17 12:37:10;;;;;;;;;;;22.80;99.90;;;;;;4986149;28;19918;-63
2023/02/17 12:39:36;;;;;;;;;;;22.80;99.90;;;;;;4983853;28;20032;-64
2023/02/17 12:42:23;;;;;;;;;;;22.80;99.90;;;;;;4985330;28;19961;-66
2023/02/17 12:44:55;;;;;;;;;;;22.80;99.90;;;;;;4992935;28;20301;-67
2023/02/17 12:47:27;;;;;;;;;;;22.60;99.90;;;;;;4986995;28;20371;-66
2023/02/17 12:50:15;;;;;;;;;;;22.40;99.90;;;;;;4982364;28;20573;-63
2023/02/17 12:52:44;;;;;;;;;;;22.30;99.90;;;;;;4986841;28;20089;-63
2023/02/17 12:55:17;;;;;;;;;;;22.10;99.90;;;;;;4986593;28;20368;-64
2023/02/17 12:58:02;;;;;;;;;;;22.20;99.90;;;;;;4983811;28;19968;-67
2023/02/17 13:00:29;;;;;;;;;;;22.10;99.90;;;;;;4984649;28;20395;-63
2023/02/17 13:02:59;;;;;;;;;;;22.10;99.90;;;;;;5013065;28;19932;-62
2023/02/17 13:05:32;;;;;;;;;;;22.10;99.90;;;;;;5028608;28;19940;-63
2023/02/17 13:08:07;;;;;;;;;;;22.30;99.90;;;;;;5028139;28;19917;-67
2023/02/17 13:10:35;;;;;;;;;;;22.20;99.90;;;;;;5027202;28;20032;-62
2023/02/17 13:13:02;;;;;;;;;;;22.20;99.90;;;;;;5021508;28;20455;-63
2023/02/17 13:15:41;;;;;;;;;;;22.00;99.90;;;;;;5027025;28;19913;-66
2023/02/17 13:18:11;;;;;;;;;;;21.90;99.90;;;;;;5027532;28;19925;-62
2023/02/17 13:20:52;;;;;;;;;;;21.90;99.90;;;;;;5027110;28;19913;-63
2023/02/17 13:23:33;;;;;;;;;;;21.90;99.90;;;;;;5023566;28;19918;-66
2023/02/17 13:26:05;;;;;;;;;;;21.90;99.90;;;;;;5018329;28;19996;-63
2023/02/17 13:28:33;;;;;;;;;;;21.90;99.90;;;;;;5024940;28;20063;-63
2023/02/17 13:31:07;;;;;;;;;;;21.90;99.90;;;;;;5017448;28;19917;-66
2023/02/17 13:33:39;;;;;;;;;;;21.80;99.90;;;;;;5022140;28;19932;-63
2023/02/17 13:36:31;;;;;;;;;;;21.80;99.90;;;;;;5029463;28;19909;-65
2023/02/17 13:39:02;;;;;;;;;;;21.80;99.90;;;;;;5029785;28;19917;-65
2023/02/17 13:41:33;;;;;;;;;;;21.80;99.90;;;;;;5026569;28;19951;-64
2023/02/17 13:44:13;;;;;;;;;;;21.70;99.90;;;;;;5029968;28;20691;-67
2023/02/17 13:46:39;;;;;;;;;;;21.60;99.90;;;;;;5024218;28;19909;-63
2023/02/17 13:49:06;;;;;;;;;;;21.60;99.90;;;;;;5029601;28;19917;-66
2023/02/17 13:51:33;;;;;;;;;;;21.60;99.90;;;;;;5025192;28;19924;-65
2023/02/17 13:54:08;;;;;;;;;;;21.60;99.90;;;;;;5029506;28;19928;-63
2023/02/17 13:56:34;;;;;;;;;;;21.60;99.90;;;;;;5025261;28;20102;-63
2023/02/17 13:59:16;;;;;;;;;;;21.50;99.90;;;;;;5030153;28;19925;-65
2023/02/17 14:01:43;;;;;;;;;;;21.40;99.90;;;;;;5030605;28;20194;-66
2023/02/17 14:04:18;;;;;;;;;;;21.30;99.90;;;;;;5030505;28;19913;-66
2023/02/17 14:06:44;;;;;;;;;;;21.30;99.90;;;;;;5030113;28;19979;-66
2023/02/17 14:09:30;;;;;;;;;;;21.40;99.90;;;;;;5030397;28;20000;-65
2023/02/17 14:11:58;;;;;;;;;;;21.40;99.90;;;;;;5028358;28;19913;-64
2023/02/17 14:14:35;;;;;;;;;;;21.50;99.90;;;;;;5027157;28;19918;-63
2023/02/17 14:17:12;;;;;;;;;;;21.40;99.90;;;;;;5030115;28;20356;-66
2023/02/17 14:19:46;;;;;;;;;;;21.30;99.90;;;;;;5030076;28;19913;-67
2023/02/17 14:22:32;;;;;;;;;;;21.20;99.90;;;;;;5036273;28;19952;-63
2023/02/17 14:25:03;;;;;;;;;;;21.20;99.90;;;;;;5024178;28;20003;-63
2023/02/17 14:27:40;;;;;;;;;;;21.20;99.90;;;;;;5021731;28;19917;-67
2023/02/17 14:30:07;;;;;;;;;;;21.00;99.90;;;;;;5025072;28;20003;-63
2023/02/17 14:32:36;;;;;;;;;;;21.00;99.90;;;;;;5029824;28;19917;-66
2023/02/17 14:35:19;;;;;;;;;;;21.00;99.90;;;;;;5027937;28;19921;-66
2023/02/17 14:37:45;;;;;;;;;;;21.10;99.90;;;;;;5020543;28;19918;-67